Velence, Olaszország

2014 Október 20 02:58 PM (CEST időzóna) (GMT +0200)
Venezia | Change Station
CLOSE
Current Station
Personal Weather Stations
Location: Dese, Venezia
Elevation: 14 ft
Közeli meteorológiai állomások

Elev 14 ft 45.53 °N, 12.31 °E | Updated 7 seconds ago

Mostly Cloudy
Jórészt felhős
69.4 °F
Hőérzet 69.4 °F
N
0.0
Szél: változó Szél: from nyugat-délnyugati
Gusts 1.0 mph

Ma
High -- | Low -- °F
--% Csapadék valószínű
Tegnapi
High -- | Low -- °F
Precip. -- hvlyk.
7:33 AM 6:16 PM
Fogyó holdsarló, 11% visible
Légnyomás 30.12 hvlyk.
Látótávolság 2.2 mérföld
Felhők Jórészt felhős 600 ft
Harmatpont 65 °F
Páratartalom 87%
Rainfall 0.00 hvlyk.
Hóréteg vastagsága Not available.
UV 2 out of 12
Pollen Not available.
A levegő minősége Not available.
Flu Activity Not available.
METAR LIPZ 201250Z VRB03KT 3500 BR BKN006 20/18 Q1020

More Conditions Fewer Conditions

Légnyomás 30.12 hvlyk.
Látótávolság 2.2 mérföld
Felhők Jórészt felhős 600 ft
Harmatpont 65 °F
Páratartalom 87%
Rainfall 0.00 hvlyk.
Hóréteg vastagsága Not available.
UV 2 out of 12
Pollen Not available.
A levegő minősége Not available.
Flu Activity Not available.
METAR LIPZ 201250Z VRB03KT 3500 BR BKN006 20/18 Q1020

More Conditions Fewer Conditions

10-Day Weather Forecast

Almanac

Csillagászat

Oct. 20, 2014 Kel Nyugszik
Tényleges idő 7:33 AM CEST 6:16 PM CEST
Civil alkony 7:03 AM CEST 6:47 PM CEST
Tengerészeti alkony 6:28 AM CEST 7:21 PM CEST
Csillagászati alkony 5:54 AM CEST 7:55 PM CEST
Hold 3:56 AM CEST 4:39 PM CEST
Látható fény időtartama 11h 43m
A nap hossza
10h 43m
Tomorrow will be 3m 2s shorter.
Fogyó holdsarló, 11% of the Moon is Illuminated
Ma
Fogyó holdsarló
Oct 23
Új
Oct 30
első negyed
Nov 6
telihold
Nov 14
utolsó negyed

Yesterday's Extremes

Country Highs Country Lows

Community

WunderPhotos

Upload Photos

1,763,360 Fotók feltöltve.

Nearby

A levegő minősége

Not available.

Hóréteg vastagsága

Not available.

Earthquake Activity

város Distance Mag. Time & Date
No recent earthquake activity has been reported nearby.
Minimum magnitude displayed is 2.5.

Coastal Water Temperatures

Hely Hőmérséklet
No Stations Reporting

Közeli meteorológiai állomások